sensor_id;sensor_type;location;lat;lon;timestamp;temperature;humidity
49821;DHT22;36893;52.520;13.450;2024-01-15T00:03:49;18.30;91.00
49821;DHT22;36893;52.520;13.450;2024-01-15T00:13:49;18.20;91.00
49821;DHT22;36893;52.520;13.450;2024-01-15T00:23:50;18.30;91.10
49821;DHT22;36893;52.520;13.450;2024-01-15T00:33:51;18.20;91.10
49821;DHT22;36893;52.520;13.450;2024-01-15T00:43:52;18.30;91.20
49821;DHT22;36893;52.520;13.450;2024-01-15T00:53:53;18.20;91.20
49821;DHT22;36893;52.520;13.450;2024-01-15T01:03:53;18.30;91.30
49821;DHT22;36893;52.520;13.450;2024-01-15T01:13:54;18.30;91.30
49821;DHT22;36893;52.520;13.450;2024-01-15T01:23:56;18.30;91.30
49821;DHT22;36893;52.520;13.450;2024-01-15T01:33:57;18.30;91.40
49821;DHT22;36893;52.520;13.450;2024-01-15T01:43:58;18.30;91.40
49821;DHT22;36893;52.520;13.450;2024-01-15T01:53:58;18.30;91.40
49821;DHT22;36893;52.520;13.450;2024-01-15T02:04:00;18.30;91.40
49821;DHT22;36893;52.520;13.450;2024-01-15T02:14:01;18.30;91.40
49821;DHT22;36893;52.520;13.450;2024-01-15T02:24:02;18.30;91.40
49821;DHT22;36893;52.520;13.450;2024-01-15T02:34:03;18.30;91.40
49821;DHT22;36893;52.520;13.450;2024-01-15T02:44:04;18.30;91.40
49821;DHT22;36893;52.520;13.450;2024-01-15T02:54:05;18.30;91.40
49821;DHT22;36893;52.520;13.450;2024-01-15T03:04:05;18.30;91.40
49821;DHT22;36893;52.520;13.450;2024-01-15T03:14:06;18.30;91.40
49821;DHT22;36893;52.520;13.450;2024-01-15T03:24:06;18.30;91.30
49821;DHT22;36893;52.520;13.450;2024-01-15T03:34:07;18.30;91.30
49821;DHT22;36893;52.520;13.450;2024-01-15T03:44:08;18.30;91.30
49821;DHT22;36893;52.520;13.450;2024-01-15T03:54:08;18.40;91.30
49821;DHT22;36893;52.520;13.450;2024-01-15T04:04:09;18.30;91.30
49821;DHT22;36893;52.520;13.450;2024-01-15T04:14:10;18.40;91.30
49821;DHT22;36893;52.520;13.450;2024-01-15T04:24:10;18.40;91.20
49821;DHT22;36893;52.520;13.450;2024-01-15T04:34:11;18.30;91.20
49821;DHT22;36893;52.520;13.450;2024-01-15T04:44:11;18.30;91.20
49821;DHT22;36893;52.520;13.450;2024-01-15T04:54:12;18.30;91.10
49821;DHT22;36893;52.520;13.450;2024-01-15T05:04:13;18.30;91.10
49821;DHT22;36893;52.520;13.450;2024-01-15T05:14:14;18.40;91.10
49821;DHT22;36893;52.520;13.450;2024-01-15T05:24:14;18.40;91.00
49821;DHT22;36893;52.520;13.450;2024-01-15T05:34:15;18.30;91.00
49821;DHT22;36893;52.520;13.450;2024-01-15T05:44:15;18.30;90.90
49821;DHT22;36893;52.520;13.450;2024-01-15T05:54:17;18.30;91.00
49821;DHT22;36893;52.520;13.450;2024-01-15T06:04:19;18.30;90.90
49821;DHT22;36893;52.520;13.450;2024-01-15T06:14:19;18.30;90.80
49821;DHT22;36893;52.520;13.450;2024-01-15T06:24:20;18.40;90.80
49821;DHT22;36893;52.520;13.450;2024-01-15T06:34:21;18.40;90.80
49821;DHT22;36893;52.520;13.450;2024-01-15T06:44:21;18.30;90.70
49821;DHT22;36893;52.520;13.450;2024-01-15T06:54:22;18.40;90.70
49821;DHT22;36893;52.520;13.450;2024-01-15T07:04:23;18.40;90.70
49821;DHT22;36893;52.520;13.450;2024-01-15T07:14:24;18.40;90.60
49821;DHT22;36893;52.520;13.450;2024-01-15T07:24:25;18.40;90.60
49821;DHT22;36893;52.520;13.450;2024-01-15T07:34:25;18.40;90.50
49821;DHT22;36893;52.520;13.450;2024-01-15T07:44:26;18.40;90.40
49821;DHT22;36893;52.520;13.450;2024-01-15T07:54:27;18.40;90.40
49821;DHT22;36893;52.520;13.450;2024-01-15T08:04:27;18.40;90.30
49821;DHT22;36893;52.520;13.450;2024-01-15T08:14:28;18.40;90.30
49821;DHT22;36893;52.520;13.450;2024-01-15T08:24:29;18.40;90.20
49821;DHT22;36893;52.520;13.450;2024-01-15T08:34:30;18.40;90.20
49821;DHT22;36893;52.520;13.450;2024-01-15T08:44:31;18.40;90.00
49821;DHT22;36893;52.520;13.450;2024-01-15T08:54:32;18.40;89.90
49821;DHT22;36893;52.520;13.450;2024-01-15T09:04:32;18.50;89.80
49821;DHT22;36893;52.520;13.450;2024-01-15T09:14:33;18.50;89.50
49821;DHT22;36893;52.520;13.450;2024-01-15T09:24:34;18.50;88.90
49821;DHT22;36893;52.520;13.450;2024-01-15T09:34:35;18.50;88.50
49821;DHT22;36893;52.520;13.450;2024-01-15T09:44:35;18.60;88.20
49821;DHT22;36893;52.520;13.450;2024-01-15T09:54:37;18.60;87.90
49821;DHT22;36893;52.520;13.450;2024-01-15T10:04:38;18.60;87.70
49821;DHT22;36893;52.520;13.450;2024-01-15T10:14:40;18.70;87.50
49821;DHT22;36893;52.520;13.450;2024-01-15T10:24:42;18.70;87.10
49821;DHT22;36893;52.520;13.450;2024-01-15T10:34:43;18.70;86.80
49821;DHT22;36893;52.520;13.450;2024-01-15T10:44:44;18.00;89.10
49821;DHT22;36893;52.520;13.450;2024-01-15T10:54:48;17.90;90.20
49821;DHT22;36893;52.520;13.450;2024-01-15T11:04:49;18.10;89.60
49821;DHT22;36893;52.520;13.450;2024-01-15T11:14:50;18.30;88.90
49821;DHT22;36893;52.520;13.450;2024-01-15T11:24:50;18.40;88.40
49821;DHT22;36893;52.520;13.450;2024-01-15T11:45:00;18.50;88.30
49821;DHT22;36893;52.520;13.450;2024-01-15T11:55:24;18.60;87.50
49821;DHT22;36893;52.520;13.450;2024-01-15T12:05:28;18.50;87.30
49821;DHT22;36893;52.520;13.450;2024-01-15T12:15:30;18.50;87.20
49821;DHT22;36893;52.520;13.450;2024-01-15T12:25:32;18.50;87.10
49821;DHT22;36893;52.520;13.450;2024-01-15T12:35:34;18.50;87.10
49821;DHT22;36893;52.520;13.450;2024-01-15T12:45:35;18.50;86.90
49821;DHT22;36893;52.520;13.450;2024-01-15T12:55:38;18.50;86.80
49821;DHT22;36893;52.520;13.450;2024-01-15T13:05:40;18.50;86.80
49821;DHT22;36893;52.520;13.450;2024-01-15T13:15:41;18.50;87.10
49821;DHT22;36893;52.520;13.450;2024-01-15T13:25:42;18.50;87.10
49821;DHT22;36893;52.520;13.450;2024-01-15T13:35:42;18.60;87.20
49821;DHT22;36893;52.520;13.450;2024-01-15T13:45:43;18.50;87.10
49821;DHT22;36893;52.520;13.450;2024-01-15T13:55:44;18.50;87.00
49821;DHT22;36893;52.520;13.450;2024-01-15T14:05:44;18.50;86.90
49821;DHT22;36893;52.520;13.450;2024-01-15T14:15:45;18.50;86.90
49821;DHT22;36893;52.520;13.450;2024-01-15T14:25:46;18.50;86.80
49821;DHT22;36893;52.520;13.450;2024-01-15T14:35:46;18.50;86.80
49821;DHT22;36893;52.520;13.450;2024-01-15T14:45:47;18.50;86.70
49821;DHT22;36893;52.520;13.450;2024-01-15T14:55:48;17.80;88.50
49821;DHT22;36893;52.520;13.450;2024-01-15T15:05:48;17.60;90.00
49821;DHT22;36893;52.520;13.450;2024-01-15T15:15:49;17.90;89.60
49821;DHT22;36893;52.520;13.450;2024-01-15T15:25:50;18.10;88.90
49821;DHT22;36893;52.520;13.450;2024-01-15T15:35:50;17.70;90.00
49821;DHT22;36893;52.520;13.450;2024-01-15T15:45:51;17.90;90.00
49821;DHT22;36893;52.520;13.450;2024-01-15T15:55:52;18.10;89.60
49821;DHT22;36893;52.520;13.450;2024-01-15T16:05:53;17.50;90.20
49821;DHT22;36893;52.520;13.450;2024-01-15T16:15:53;16.90;91.30
49821;DHT22;36893;52.520;13.450;2024-01-15T16:25:54;16.60;92.10
49821;DHT22;36893;52.520;13.450;2024-01-15T16:35:54;16.80;92.70
49821;DHT22;36893;52.520;13.450;2024-01-15T16:45:55;17.20;92.20
49821;DHT22;36893;52.520;13.450;2024-01-15T16:55:56;17.60;91.80
49821;DHT22;36893;52.520;13.450;2024-01-15T17:05:57;17.90;91.40
49821;DHT22;36893;52.520;13.450;2024-01-15T17:15:57;18.10;91.10
49821;DHT22;36893;52.520;13.450;2024-01-15T17:25:59;18.20;91.00
49821;DHT22;36893;52.520;13.450;2024-01-15T17:36:00;18.20;90.70
49821;DHT22;36893;52.520;13.450;2024-01-15T17:46:00;18.30;90.60
49821;DHT22;36893;52.520;13.450;2024-01-15T17:56:01;18.40;90.80
49821;DHT22;36893;52.520;13.450;2024-01-15T18:06:02;18.30;90.30
49821;DHT22;36893;52.520;13.450;2024-01-15T18:16:03;18.30;90.10
49821;DHT22;36893;52.520;13.450;2024-01-15T18:26:04;18.30;90.00
49821;DHT22;36893;52.520;13.450;2024-01-15T18:36:05;18.40;89.80
49821;DHT22;36893;52.520;13.450;2024-01-15T18:46:07;18.30;89.40
49821;DHT22;36893;52.520;13.450;2024-01-15T18:56:07;18.30;89.20
49821;DHT22;36893;52.520;13.450;2024-01-15T19:06:08;18.30;89.00
49821;DHT22;36893;52.520;13.450;2024-01-15T19:16:09;18.30;88.80
49821;DHT22;36893;52.520;13.450;2024-01-15T19:26:17;18.30;88.50
49821;DHT22;36893;52.520;13.450;2024-01-15T19:36:22;18.30;88.30
49821;DHT22;36893;52.520;13.450;2024-01-15T19:46:23;18.40;88.20
49821;DHT22;36893;52.520;13.450;2024-01-15T19:56:24;18.30;87.90
49821;DHT22;36893;52.520;13.450;2024-01-15T20:06:25;18.40;87.90
49821;DHT22;36893;52.520;13.450;2024-01-15T20:16:25;18.30;87.60
49821;DHT22;36893;52.520;13.450;2024-01-15T20:26:26;18.30;87.40
49821;DHT22;36893;52.520;13.450;2024-01-15T20:36:27;18.30;87.20
49821;DHT22;36893;52.520;13.450;2024-01-15T20:46:27;18.40;87.10
49821;DHT22;36893;52.520;13.450;2024-01-15T20:56:28;18.30;87.00
49821;DHT22;36893;52.520;13.450;2024-01-15T21:06:29;18.40;87.10
49821;DHT22;36893;52.520;13.450;2024-01-15T21:16:29;18.40;87.10
49821;DHT22;36893;52.520;13.450;2024-01-15T21:26:30;18.40;87.10
49821;DHT22;36893;52.520;13.450;2024-01-15T21:36:31;18.40;87.00
49821;DHT22;36893;52.520;13.450;2024-01-15T21:46:31;17.90;88.50
49821;DHT22;36893;52.520;13.450;2024-01-15T21:56:32;17.90;89.10
49821;DHT22;36893;52.520;13.450;2024-01-15T22:06:33;18.10;88.90
49821;DHT22;36893;52.520;13.450;2024-01-15T22:16:35;18.20;88.70
49821;DHT22;36893;52.520;13.450;2024-01-15T22:26:37;18.20;88.60
49821;DHT22;36893;52.520;13.450;2024-01-15T22:36:38;18.30;88.40
49821;DHT22;36893;52.520;13.450;2024-01-15T22:46:38;18.30;88.10
49821;DHT22;36893;52.520;13.450;2024-01-15T22:56:39;18.40;87.90
49821;DHT22;36893;52.520;13.450;2024-01-15T23:06:41;18.40;87.70
49821;DHT22;36893;52.520;13.450;2024-01-15T23:16:41;18.40;87.60
49821;DHT22;36893;52.520;13.450;2024-01-15T23:26:43;18.40;87.40
49821;DHT22;36893;52.520;13.450;2024-01-15T23:36:44;18.40;87.40
49821;DHT22;36893;52.520;13.450;2024-01-15T23:46:45;18.40;87.20
49821;DHT22;36893;52.520;13.450;2024-01-15T23:56:46;18.40;87.10
